Alida, Canada
Current Conditions -  °F | °C
As of 7:00 PM on Sunday 23 Nov 2014 (Local Time) from CYEN Reporting Station
Scattered Clouds Scattered Clouds  
Wind Chill: -5°   Ceiling: Unl
Heat Index: 10°   Visibility: 15mi
Dew Point:   Wind: 14mph
Humidity: 85%   Direction: 310°NW
Pressure: 29.79"   Gusts: NA
Location:  49.38°N, 101.87°W
Report Text: CYEN 240100Z 31012KT 15SM SCT100 M12/M14 A2979 RMK AC3 SLP126
Loading
Personal Weather Stations






























Interactive Weather Map New forecast layout! Learn more

10-Day Weather Forecast

Advertisements
Track Severe Weather on mobile